SLCO

Capitán Aníbal Arab Airport

Airport
ICAO code
SLCO
IATA Code
CIJ
Summary
ICAO Region
CARSAM
ICAO Territory
Location

Cobija, Pando

Serving
Cobija
Elevation
889 ft
Coordinates
11° 2' 26" S , 68° 46' 59" W
KCC
Metar
Observation
SLCO 051500Z 36010KT 7000 FEW027 33/25 Q1010
Station
Cobija
Date/Time
2022-10-05 15:00:00
Wind direction
360°
Wind speed
10 kts
Lowest cloud amount
few clouds
Temperature
33°C
Dew point
25°C
Humidity
63%
QNH
1010 hPa
Weather condition
n/a

International airport serving the Acre River port city of Cobija, the capital of the Pando Department of Bolivia.

Climatology

Tropical Savanna climate (Köppen climate classification Aw).

Runways

Designator Length Width Surface Rops
2/20 2000 30 ASP No/No

Airport map

Aerial View

SKYbrary Partners:

Safety knowledge contributed by: